Loyalton, California
Current Conditions -  °F | °C
As of 12:15 AM on Friday 24 Oct 2014 (Local Time) from KRTS Reporting Station
Clear Clear  
Wind Chill: 39°   Ceiling: Unl
Heat Index: 39°   Visibility: 10mi
Dew Point: 25°   Wind: 0mph
Humidity: 56%   Direction: NA
Pressure: 30.1"   Gusts: NA
Location:  39.68°N, 120.24°W
Report Text: KRTS 240715Z AUTO 00000KT 10SM CLR 04/M04 A3010 RMK AO2
Loading
Personal Weather Stations






























Interactive Weather Map
Tropical Storm Tracking
New forecast layout! Learn more

10-Day Weather Forecast

Advertisements
Track Severe Weather on mobile